createdAt,value
2017-05-16T00:08:33.000Z,53.2
2017-05-16T00:25:21.000Z,53.2
2017-05-16T00:42:10.000Z,53.6
2017-05-16T00:58:59.000Z,53.6
2017-05-16T01:15:48.000Z,53.6
2017-05-16T01:32:37.000Z,54
2017-05-16T01:49:26.000Z,54
2017-05-16T02:06:15.000Z,54
2017-05-16T02:39:53.000Z,54
2017-05-16T02:56:41.000Z,54
2017-05-16T03:13:31.000Z,54
2017-05-16T03:30:19.000Z,54
2017-05-16T03:47:08.000Z,54
2017-05-16T04:03:57.000Z,54
2017-05-16T04:20:45.000Z,54
2017-05-16T04:37:35.000Z,54.4
2017-05-16T04:54:24.000Z,54.4
2017-05-16T05:11:12.000Z,54.4
2017-05-16T05:28:01.000Z,54.4
2017-05-16T05:44:50.000Z,54.4
2017-05-16T06:01:39.000Z,54.4
2017-05-16T06:18:27.000Z,54.4
2017-05-16T06:35:17.000Z,54
2017-05-16T06:52:05.000Z,54.4
2017-05-16T07:08:55.000Z,54
2017-05-16T07:25:44.000Z,54
2017-05-16T07:42:33.000Z,54
2017-05-16T07:59:23.000Z,54
2017-05-16T08:16:12.000Z,54.4
2017-05-16T08:33:02.000Z,54.4
2017-05-16T08:49:52.000Z,54
2017-05-16T09:06:41.000Z,53.6
2017-05-16T09:23:32.000Z,53.6
2017-05-16T09:40:22.000Z,53.6
2017-05-16T09:57:13.000Z,53.6
2017-05-16T10:14:03.000Z,54.4
2017-05-16T10:30:54.000Z,54.8
2017-05-16T10:47:45.000Z,54.8
2017-05-16T11:04:36.000Z,54.8
2017-05-16T11:21:27.000Z,54.8
2017-05-16T11:38:19.000Z,54.4
2017-05-16T11:55:10.000Z,54.4
2017-05-16T12:12:01.000Z,54
2017-05-16T12:28:53.000Z,54
2017-05-16T12:45:45.000Z,53.6
2017-05-16T13:02:36.000Z,52.8
2017-05-16T13:19:28.000Z,52.4
2017-05-16T13:36:20.000Z,52.8
2017-05-16T13:53:12.000Z,52.8
2017-05-16T14:10:05.000Z,52.8
2017-05-16T14:26:57.000Z,52.8
2017-05-16T14:43:49.000Z,52.8
2017-05-16T15:00:42.000Z,52.8
2017-05-16T15:17:34.000Z,52.4
2017-05-16T15:34:27.000Z,52.8
2017-05-16T15:51:19.000Z,53.6
2017-05-16T16:08:12.000Z,54
2017-05-16T16:25:04.000Z,54.8
2017-05-16T16:41:55.000Z,54
2017-05-16T16:58:47.000Z,54.8
2017-05-16T17:15:40.000Z,54
2017-05-16T17:32:32.000Z,54.8
2017-05-16T17:49:24.000Z,54
2017-05-16T18:06:16.000Z,54.8
2017-05-16T18:23:08.000Z,54
2017-05-16T18:40:00.000Z,54.4
2017-05-16T18:56:53.000Z,55.2
2017-05-16T19:13:44.000Z,56
2017-05-16T19:30:36.000Z,56.4
2017-05-16T19:47:28.000Z,56.8
2017-05-16T20:04:19.000Z,57.2
2017-05-16T20:21:12.000Z,58
2017-05-16T20:38:04.000Z,58
2017-05-16T20:54:55.000Z,58
2017-05-16T21:11:47.000Z,58.4
2017-05-16T21:28:38.000Z,58.4
2017-05-16T21:45:29.000Z,58.4
2017-05-16T22:02:20.000Z,58.4
2017-05-16T22:19:11.000Z,58.4
2017-05-16T22:36:01.000Z,58.4
2017-05-16T22:52:52.000Z,58.8
2017-05-16T23:09:43.000Z,58.8
2017-05-16T23:26:34.000Z,58.8
2017-05-16T23:43:24.000Z,58.8
